sensor_id;sensor_type;location;lat;lon;timestamp;temperature;humidity
7155;DHT22;3619;53.784;10.440;2023-07-20T00:00:33;13.60;99.90
7155;DHT22;3619;53.784;10.440;2023-07-20T00:03:10;13.70;99.90
7155;DHT22;3619;53.784;10.440;2023-07-20T00:05:43;13.70;99.90
7155;DHT22;3619;53.784;10.440;2023-07-20T00:08:12;13.60;99.90
7155;DHT22;3619;53.784;10.440;2023-07-20T00:10:40;13.60;99.90
7155;DHT22;3619;53.784;10.440;2023-07-20T00:13:07;13.60;99.90
7155;DHT22;3619;53.784;10.440;2023-07-20T00:15:35;13.60;99.90
7155;DHT22;3619;53.784;10.440;2023-07-20T00:18:03;13.60;99.90
7155;DHT22;3619;53.784;10.440;2023-07-20T00:20:30;13.50;99.90
7155;DHT22;3619;53.784;10.440;2023-07-20T00:22:57;13.60;99.90
7155;DHT22;3619;53.784;10.440;2023-07-20T00:25:25;13.50;99.90
7155;DHT22;3619;53.784;10.440;2023-07-20T00:27:52;13.60;99.90
7155;DHT22;3619;53.784;10.440;2023-07-20T00:30:19;13.60;99.90
7155;DHT22;3619;53.784;10.440;2023-07-20T00:32:46;13.60;99.90
7155;DHT22;3619;53.784;10.440;2023-07-20T00:35:13;13.60;99.90
7155;DHT22;3619;53.784;10.440;2023-07-20T00:37:40;13.60;99.90
7155;DHT22;3619;53.784;10.440;2023-07-20T00:40:07;13.60;99.90
7155;DHT22;3619;53.784;10.440;2023-07-20T00:42:36;13.60;99.90
7155;DHT22;3619;53.784;10.440;2023-07-20T00:45:03;13.60;99.90
7155;DHT22;3619;53.784;10.440;2023-07-20T00:47:31;13.60;99.90
7155;DHT22;3619;53.784;10.440;2023-07-20T00:49:59;13.60;99.90
7155;DHT22;3619;53.784;10.440;2023-07-20T00:52:27;13.60;99.90
7155;DHT22;3619;53.784;10.440;2023-07-20T00:54:55;13.60;99.90
7155;DHT22;3619;53.784;10.440;2023-07-20T00:57:23;13.60;99.90
7155;DHT22;3619;53.784;10.440;2023-07-20T00:59:52;13.60;99.90
7155;DHT22;3619;53.784;10.440;2023-07-20T01:02:18;13.60;99.90
7155;DHT22;3619;53.784;10.440;2023-07-20T01:04:45;13.60;99.90
7155;DHT22;3619;53.784;10.440;2023-07-20T01:07:17;13.60;99.90
7155;DHT22;3619;53.784;10.440;2023-07-20T01:09:52;13.60;99.90
7155;DHT22;3619;53.784;10.440;2023-07-20T01:12:25;13.50;99.90
7155;DHT22;3619;53.784;10.440;2023-07-20T01:14:54;13.60;99.90
7155;DHT22;3619;53.784;10.440;2023-07-20T01:17:23;13.60;99.90
7155;DHT22;3619;53.784;10.440;2023-07-20T01:19:51;13.60;99.90
7155;DHT22;3619;53.784;10.440;2023-07-20T01:22:37;13.60;99.90
7155;DHT22;3619;53.784;10.440;2023-07-20T01:25:26;13.60;99.90
7155;DHT22;3619;53.784;10.440;2023-07-20T01:28:20;13.60;99.90
7155;DHT22;3619;53.784;10.440;2023-07-20T01:31:00;13.60;99.90
7155;DHT22;3619;53.784;10.440;2023-07-20T01:33:33;13.60;99.90
7155;DHT22;3619;53.784;10.440;2023-07-20T01:36:02;13.60;99.90
7155;DHT22;3619;53.784;10.440;2023-07-20T01:38:30;13.60;99.90
7155;DHT22;3619;53.784;10.440;2023-07-20T01:40:57;13.60;99.90
7155;DHT22;3619;53.784;10.440;2023-07-20T01:43:24;13.60;99.90
7155;DHT22;3619;53.784;10.440;2023-07-20T01:45:51;13.50;99.90
7155;DHT22;3619;53.784;10.440;2023-07-20T01:48:18;13.50;99.90
7155;DHT22;3619;53.784;10.440;2023-07-20T01:50:46;13.50;99.90
7155;DHT22;3619;53.784;10.440;2023-07-20T01:53:13;13.50;99.90
7155;DHT22;3619;53.784;10.440;2023-07-20T01:55:41;13.60;99.90
7155;DHT22;3619;53.784;10.440;2023-07-20T01:58:08;13.60;99.90
7155;DHT22;3619;53.784;10.440;2023-07-20T02:00:37;13.60;99.90
7155;DHT22;3619;53.784;10.440;2023-07-20T02:03:03;13.60;99.90
7155;DHT22;3619;53.784;10.440;2023-07-20T02:05:30;13.50;99.90
7155;DHT22;3619;53.784;10.440;2023-07-20T02:07:58;13.50;99.90
7155;DHT22;3619;53.784;10.440;2023-07-20T02:10:25;13.60;99.90
7155;DHT22;3619;53.784;10.440;2023-07-20T02:12:52;13.60;99.90
7155;DHT22;3619;53.784;10.440;2023-07-20T02:15:18;13.50;99.90
7155;DHT22;3619;53.784;10.440;2023-07-20T02:17:45;13.50;99.90
7155;DHT22;3619;53.784;10.440;2023-07-20T02:20:13;13.50;99.90
7155;DHT22;3619;53.784;10.440;2023-07-20T02:22:40;13.50;99.90
7155;DHT22;3619;53.784;10.440;2023-07-20T02:25:09;13.50;99.90
7155;DHT22;3619;53.784;10.440;2023-07-20T02:27:36;13.50;99.90
7155;DHT22;3619;53.784;10.440;2023-07-20T02:30:05;13.50;99.90
7155;DHT22;3619;53.784;10.440;2023-07-20T02:32:33;13.50;99.90
7155;DHT22;3619;53.784;10.440;2023-07-20T02:35:00;13.60;99.90
7155;DHT22;3619;53.784;10.440;2023-07-20T02:37:29;13.60;99.90
7155;DHT22;3619;53.784;10.440;2023-07-20T02:39:56;13.60;99.90
7155;DHT22;3619;53.784;10.440;2023-07-20T02:42:24;13.60;99.90
7155;DHT22;3619;53.784;10.440;2023-07-20T02:44:51;13.50;99.90
7155;DHT22;3619;53.784;10.440;2023-07-20T02:47:18;13.50;99.90
7155;DHT22;3619;53.784;10.440;2023-07-20T02:49:44;13.60;99.90
7155;DHT22;3619;53.784;10.440;2023-07-20T02:52:11;13.50;99.90
7155;DHT22;3619;53.784;10.440;2023-07-20T02:54:38;13.50;99.90
7155;DHT22;3619;53.784;10.440;2023-07-20T02:57:05;13.50;99.90
7155;DHT22;3619;53.784;10.440;2023-07-20T02:59:34;13.50;99.90
7155;DHT22;3619;53.784;10.440;2023-07-20T03:02:00;13.50;99.90
7155;DHT22;3619;53.784;10.440;2023-07-20T03:04:27;13.50;99.90
7155;DHT22;3619;53.784;10.440;2023-07-20T03:06:54;13.50;99.90
7155;DHT22;3619;53.784;10.440;2023-07-20T03:09:21;13.60;99.90
7155;DHT22;3619;53.784;10.440;2023-07-20T03:11:50;13.60;99.90
7155;DHT22;3619;53.784;10.440;2023-07-20T03:14:17;13.60;99.90
7155;DHT22;3619;53.784;10.440;2023-07-20T03:16:45;13.60;99.90
7155;DHT22;3619;53.784;10.440;2023-07-20T03:19:12;13.60;99.90
7155;DHT22;3619;53.784;10.440;2023-07-20T03:21:38;13.60;99.90
7155;DHT22;3619;53.784;10.440;2023-07-20T03:24:06;13.60;99.90
7155;DHT22;3619;53.784;10.440;2023-07-20T03:26:34;13.60;99.90
7155;DHT22;3619;53.784;10.440;2023-07-20T03:29:01;13.60;99.90
7155;DHT22;3619;53.784;10.440;2023-07-20T03:31:28;13.60;99.90
7155;DHT22;3619;53.784;10.440;2023-07-20T03:33:56;13.60;99.90
7155;DHT22;3619;53.784;10.440;2023-07-20T03:36:23;13.60;99.90
7155;DHT22;3619;53.784;10.440;2023-07-20T03:38:49;13.60;99.90
7155;DHT22;3619;53.784;10.440;2023-07-20T03:41:16;13.50;99.90
7155;DHT22;3619;53.784;10.440;2023-07-20T03:43:45;13.60;99.90
7155;DHT22;3619;53.784;10.440;2023-07-20T03:46:12;13.60;99.90
7155;DHT22;3619;53.784;10.440;2023-07-20T03:48:38;13.60;99.90
7155;DHT22;3619;53.784;10.440;2023-07-20T03:51:07;13.60;99.90
7155;DHT22;3619;53.784;10.440;2023-07-20T03:53:34;13.60;99.90
7155;DHT22;3619;53.784;10.440;2023-07-20T03:56:00;13.60;99.90
7155;DHT22;3619;53.784;10.440;2023-07-20T03:58:27;13.70;99.90
7155;DHT22;3619;53.784;10.440;2023-07-20T04:00:55;13.70;99.90
7155;DHT22;3619;53.784;10.440;2023-07-20T04:03:23;13.70;99.90
7155;DHT22;3619;53.784;10.440;2023-07-20T04:05:53;13.70;99.90
7155;DHT22;3619;53.784;10.440;2023-07-20T04:08:22;13.70;99.90
7155;DHT22;3619;53.784;10.440;2023-07-20T04:10:49;13.70;99.90
7155;DHT22;3619;53.784;10.440;2023-07-20T04:13:16;13.70;99.90
7155;DHT22;3619;53.784;10.440;2023-07-20T04:15:42;13.70;99.90
7155;DHT22;3619;53.784;10.440;2023-07-20T04:18:09;13.80;99.90
7155;DHT22;3619;53.784;10.440;2023-07-20T04:20:36;13.80;99.90
7155;DHT22;3619;53.784;10.440;2023-07-20T04:23:03;13.80;99.90
7155;DHT22;3619;53.784;10.440;2023-07-20T04:25:31;13.80;99.90
7155;DHT22;3619;53.784;10.440;2023-07-20T04:28:04;13.80;99.90
7155;DHT22;3619;53.784;10.440;2023-07-20T04:30:34;13.80;99.90
7155;DHT22;3619;53.784;10.440;2023-07-20T04:33:02;13.80;99.90
7155;DHT22;3619;53.784;10.440;2023-07-20T04:35:51;13.80;99.90
7155;DHT22;3619;53.784;10.440;2023-07-20T04:38:19;13.80;99.90
7155;DHT22;3619;53.784;10.440;2023-07-20T04:40:50;13.80;99.90
7155;DHT22;3619;53.784;10.440;2023-07-20T04:43:17;13.80;99.90
7155;DHT22;3619;53.784;10.440;2023-07-20T04:45:44;13.80;99.90
7155;DHT22;3619;53.784;10.440;2023-07-20T04:48:13;13.80;99.90
7155;DHT22;3619;53.784;10.440;2023-07-20T04:50:41;13.90;99.90
7155;DHT22;3619;53.784;10.440;2023-07-20T04:53:09;13.90;99.90
7155;DHT22;3619;53.784;10.440;2023-07-20T04:55:36;13.90;99.90
7155;DHT22;3619;53.784;10.440;2023-07-20T04:58:05;13.90;99.90
7155;DHT22;3619;53.784;10.440;2023-07-20T05:00:32;13.90;99.90
7155;DHT22;3619;53.784;10.440;2023-07-20T05:03:00;13.90;99.90
7155;DHT22;3619;53.784;10.440;2023-07-20T05:05:26;13.90;99.90
7155;DHT22;3619;53.784;10.440;2023-07-20T05:07:53;13.90;99.90
7155;DHT22;3619;53.784;10.440;2023-07-20T05:10:20;14.00;99.90
7155;DHT22;3619;53.784;10.440;2023-07-20T05:12:46;14.10;99.90
7155;DHT22;3619;53.784;10.440;2023-07-20T05:15:15;14.10;99.90
7155;DHT22;3619;53.784;10.440;2023-07-20T05:17:42;14.10;99.90
7155;DHT22;3619;53.784;10.440;2023-07-20T05:20:09;14.20;99.90
7155;DHT22;3619;53.784;10.440;2023-07-20T05:22:37;14.30;99.90
7155;DHT22;3619;53.784;10.440;2023-07-20T05:25:06;14.40;99.90
7155;DHT22;3619;53.784;10.440;2023-07-20T05:27:34;14.40;99.90
7155;DHT22;3619;53.784;10.440;2023-07-20T05:30:01;14.40;99.90
7155;DHT22;3619;53.784;10.440;2023-07-20T05:32:30;14.50;99.90
7155;DHT22;3619;53.784;10.440;2023-07-20T05:34:59;14.50;99.90
7155;DHT22;3619;53.784;10.440;2023-07-20T05:37:26;14.60;99.90
7155;DHT22;3619;53.784;10.440;2023-07-20T05:39:53;14.80;99.90
7155;DHT22;3619;53.784;10.440;2023-07-20T05:42:19;14.80;99.90
7155;DHT22;3619;53.784;10.440;2023-07-20T05:44:46;14.90;99.90
7155;DHT22;3619;53.784;10.440;2023-07-20T05:47:15;14.90;99.90
7155;DHT22;3619;53.784;10.440;2023-07-20T05:49:43;15.00;99.90
7155;DHT22;3619;53.784;10.440;2023-07-20T05:52:10;15.20;99.90
7155;DHT22;3619;53.784;10.440;2023-07-20T05:54:37;15.40;99.90
7155;DHT22;3619;53.784;10.440;2023-07-20T05:57:04;15.50;99.90
7155;DHT22;3619;53.784;10.440;2023-07-20T05:59:31;15.60;99.90
7155;DHT22;3619;53.784;10.440;2023-07-20T06:01:58;15.70;99.90
7155;DHT22;3619;53.784;10.440;2023-07-20T06:04:25;15.90;99.90
7155;DHT22;3619;53.784;10.440;2023-07-20T06:06:53;15.80;99.90
7155;DHT22;3619;53.784;10.440;2023-07-20T06:09:20;15.80;99.90
7155;DHT22;3619;53.784;10.440;2023-07-20T06:11:46;15.70;99.90
7155;DHT22;3619;53.784;10.440;2023-07-20T06:14:13;15.90;99.90
7155;DHT22;3619;53.784;10.440;2023-07-20T06:16:41;15.80;99.90
7155;DHT22;3619;53.784;10.440;2023-07-20T06:19:08;16.00;99.90
7155;DHT22;3619;53.784;10.440;2023-07-20T06:21:36;16.00;99.90
7155;DHT22;3619;53.784;10.440;2023-07-20T06:24:05;16.00;99.90
7155;DHT22;3619;53.784;10.440;2023-07-20T06:26:46;16.00;99.90
7155;DHT22;3619;53.784;10.440;2023-07-20T06:29:12;16.10;99.90
7155;DHT22;3619;53.784;10.440;2023-07-20T06:31:39;16.20;99.90
7155;DHT22;3619;53.784;10.440;2023-07-20T06:34:06;16.30;99.90
7155;DHT22;3619;53.784;10.440;2023-07-20T06:36:32;16.20;99.90
7155;DHT22;3619;53.784;10.440;2023-07-20T06:38:59;16.40;99.90
7155;DHT22;3619;53.784;10.440;2023-07-20T06:41:27;16.40;99.90
7155;DHT22;3619;53.784;10.440;2023-07-20T06:43:54;16.50;99.90
7155;DHT22;3619;53.784;10.440;2023-07-20T06:46:24;16.50;99.90
7155;DHT22;3619;53.784;10.440;2023-07-20T06:48:51;16.30;99.90
7155;DHT22;3619;53.784;10.440;2023-07-20T06:51:17;16.30;99.90
7155;DHT22;3619;53.784;10.440;2023-07-20T06:53:44;16.30;99.90
7155;DHT22;3619;53.784;10.440;2023-07-20T06:56:11;16.40;99.90
7155;DHT22;3619;53.784;10.440;2023-07-20T06:58:39;16.50;99.90
7155;DHT22;3619;53.784;10.440;2023-07-20T07:01:07;16.50;99.90
7155;DHT22;3619;53.784;10.440;2023-07-20T07:03:34;16.60;99.90
7155;DHT22;3619;53.784;10.440;2023-07-20T07:06:03;16.60;99.90
7155;DHT22;3619;53.784;10.440;2023-07-20T07:08:30;16.50;99.90
7155;DHT22;3619;53.784;10.440;2023-07-20T07:10:57;16.40;99.90
7155;DHT22;3619;53.784;10.440;2023-07-20T07:13:24;16.20;99.90
7155;DHT22;3619;53.784;10.440;2023-07-20T07:15:52;16.10;99.90
7155;DHT22;3619;53.784;10.440;2023-07-20T07:18:19;16.20;99.90
7155;DHT22;3619;53.784;10.440;2023-07-20T07:20:51;16.60;99.90
7155;DHT22;3619;53.784;10.440;2023-07-20T07:23:21;16.90;99.90
7155;DHT22;3619;53.784;10.440;2023-07-20T07:25:48;16.80;99.90
7155;DHT22;3619;53.784;10.440;2023-07-20T07:28:15;16.80;99.90
7155;DHT22;3619;53.784;10.440;2023-07-20T07:30:42;16.90;99.90
7155;DHT22;3619;53.784;10.440;2023-07-20T07:33:10;17.00;99.90
7155;DHT22;3619;53.784;10.440;2023-07-20T07:35:38;17.10;99.90
7155;DHT22;3619;53.784;10.440;2023-07-20T07:38:05;17.10;99.90
7155;DHT22;3619;53.784;10.440;2023-07-20T07:40:32;17.00;99.90
7155;DHT22;3619;53.784;10.440;2023-07-20T07:42:59;16.80;99.90
7155;DHT22;3619;53.784;10.440;2023-07-20T07:45:27;16.80;99.90
7155;DHT22;3619;53.784;10.440;2023-07-20T07:47:54;17.10;99.90
7155;DHT22;3619;53.784;10.440;2023-07-20T07:50:22;17.10;99.90
7155;DHT22;3619;53.784;10.440;2023-07-20T07:52:49;17.20;99.90
7155;DHT22;3619;53.784;10.440;2023-07-20T07:55:16;17.10;99.90
7155;DHT22;3619;53.784;10.440;2023-07-20T07:57:46;17.10;99.90
7155;DHT22;3619;53.784;10.440;2023-07-20T08:00:14;16.80;99.90
7155;DHT22;3619;53.784;10.440;2023-07-20T08:02:41;16.80;99.90
7155;DHT22;3619;53.784;10.440;2023-07-20T08:05:08;17.10;99.90
7155;DHT22;3619;53.784;10.440;2023-07-20T08:07:37;17.50;99.90
7155;DHT22;3619;53.784;10.440;2023-07-20T08:10:04;17.80;99.90
7155;DHT22;3619;53.784;10.440;2023-07-20T08:12:31;17.80;99.90
7155;DHT22;3619;53.784;10.440;2023-07-20T08:14:58;17.90;99.90
7155;DHT22;3619;53.784;10.440;2023-07-20T08:17:25;18.00;99.90
7155;DHT22;3619;53.784;10.440;2023-07-20T08:19:52;18.00;99.90
7155;DHT22;3619;53.784;10.440;2023-07-20T08:22:19;18.10;99.90
7155;DHT22;3619;53.784;10.440;2023-07-20T08:24:47;18.40;99.90
7155;DHT22;3619;53.784;10.440;2023-07-20T08:27:15;18.40;99.90
7155;DHT22;3619;53.784;10.440;2023-07-20T08:29:41;18.10;99.90
7155;DHT22;3619;53.784;10.440;2023-07-20T08:32:08;18.00;99.90
7155;DHT22;3619;53.784;10.440;2023-07-20T08:34:35;18.30;99.90
7155;DHT22;3619;53.784;10.440;2023-07-20T08:37:03;18.80;99.90
7155;DHT22;3619;53.784;10.440;2023-07-20T08:39:29;18.60;99.90
7155;DHT22;3619;53.784;10.440;2023-07-20T08:41:59;18.50;99.90
7155;DHT22;3619;53.784;10.440;2023-07-20T08:44:30;18.20;99.90
7155;DHT22;3619;53.784;10.440;2023-07-20T08:47:00;17.90;99.90
7155;DHT22;3619;53.784;10.440;2023-07-20T08:49:28;17.70;99.90
7155;DHT22;3619;53.784;10.440;2023-07-20T08:51:56;17.40;99.90
7155;DHT22;3619;53.784;10.440;2023-07-20T08:54:23;17.20;99.90
7155;DHT22;3619;53.784;10.440;2023-07-20T08:56:51;17.10;99.90
7155;DHT22;3619;53.784;10.440;2023-07-20T08:59:19;16.90;99.90
7155;DHT22;3619;53.784;10.440;2023-07-20T09:01:47;16.70;99.90
7155;DHT22;3619;53.784;10.440;2023-07-20T09:04:14;16.90;99.90
7155;DHT22;3619;53.784;10.440;2023-07-20T09:06:42;17.20;99.90
7155;DHT22;3619;53.784;10.440;2023-07-20T09:09:08;17.60;99.90
7155;DHT22;3619;53.784;10.440;2023-07-20T09:11:36;17.70;99.90
7155;DHT22;3619;53.784;10.440;2023-07-20T09:14:04;17.60;99.90
7155;DHT22;3619;53.784;10.440;2023-07-20T09:16:32;18.00;99.90
7155;DHT22;3619;53.784;10.440;2023-07-20T09:19:01;18.30;99.90
7155;DHT22;3619;53.784;10.440;2023-07-20T09:21:29;18.40;99.90
7155;DHT22;3619;53.784;10.440;2023-07-20T09:23:57;18.70;99.90
7155;DHT22;3619;53.784;10.440;2023-07-20T09:26:24;19.00;99.90
7155;DHT22;3619;53.784;10.440;2023-07-20T09:28:52;19.30;99.90
7155;DHT22;3619;53.784;10.440;2023-07-20T09:31:20;19.30;99.90
7155;DHT22;3619;53.784;10.440;2023-07-20T09:33:50;19.60;99.90
7155;DHT22;3619;53.784;10.440;2023-07-20T09:36:22;19.30;99.90
7155;DHT22;3619;53.784;10.440;2023-07-20T09:38:49;18.90;99.90
7155;DHT22;3619;53.784;10.440;2023-07-20T09:41:18;18.60;99.90
7155;DHT22;3619;53.784;10.440;2023-07-20T09:43:45;18.10;99.90
7155;DHT22;3619;53.784;10.440;2023-07-20T09:46:12;17.80;99.90
7155;DHT22;3619;53.784;10.440;2023-07-20T09:48:39;17.60;99.90
7155;DHT22;3619;53.784;10.440;2023-07-20T09:51:08;17.50;99.90
7155;DHT22;3619;53.784;10.440;2023-07-20T09:53:35;17.70;99.90
7155;DHT22;3619;53.784;10.440;2023-07-20T09:56:02;18.10;99.90
7155;DHT22;3619;53.784;10.440;2023-07-20T09:58:32;18.60;99.90
7155;DHT22;3619;53.784;10.440;2023-07-20T10:01:02;18.60;99.90
7155;DHT22;3619;53.784;10.440;2023-07-20T10:03:31;18.50;99.90
7155;DHT22;3619;53.784;10.440;2023-07-20T10:06:03;18.40;99.90
7155;DHT22;3619;53.784;10.440;2023-07-20T10:08:37;18.50;99.90
7155;DHT22;3619;53.784;10.440;2023-07-20T10:11:07;18.50;99.90
7155;DHT22;3619;53.784;10.440;2023-07-20T10:13:38;18.60;99.90
7155;DHT22;3619;53.784;10.440;2023-07-20T10:16:09;18.50;99.90
7155;DHT22;3619;53.784;10.440;2023-07-20T10:18:41;18.70;99.90
7155;DHT22;3619;53.784;10.440;2023-07-20T10:21:12;18.70;99.90
7155;DHT22;3619;53.784;10.440;2023-07-20T10:23:40;19.00;99.90
7155;DHT22;3619;53.784;10.440;2023-07-20T10:26:07;18.90;99.90
7155;DHT22;3619;53.784;10.440;2023-07-20T10:28:37;19.20;99.90
7155;DHT22;3619;53.784;10.440;2023-07-20T10:31:05;19.50;99.90
7155;DHT22;3619;53.784;10.440;2023-07-20T10:33:33;19.40;99.90
7155;DHT22;3619;53.784;10.440;2023-07-20T10:36:03;18.40;99.90
7155;DHT22;3619;53.784;10.440;2023-07-20T10:38:42;17.60;99.90
7155;DHT22;3619;53.784;10.440;2023-07-20T10:41:19;17.40;99.90
7155;DHT22;3619;53.784;10.440;2023-07-20T10:43:47;17.30;99.90
7155;DHT22;3619;53.784;10.440;2023-07-20T10:46:14;17.30;99.90
7155;DHT22;3619;53.784;10.440;2023-07-20T10:49:00;17.60;99.90
7155;DHT22;3619;53.784;10.440;2023-07-20T10:51:28;17.90;99.90
7155;DHT22;3619;53.784;10.440;2023-07-20T10:53:58;18.10;99.90
7155;DHT22;3619;53.784;10.440;2023-07-20T10:56:27;18.40;99.90
7155;DHT22;3619;53.784;10.440;2023-07-20T10:58:58;18.60;99.90
7155;DHT22;3619;53.784;10.440;2023-07-20T11:01:30;18.80;99.90
7155;DHT22;3619;53.784;10.440;2023-07-20T11:03:58;19.30;99.90
7155;DHT22;3619;53.784;10.440;2023-07-20T11:06:30;19.40;99.90
7155;DHT22;3619;53.784;10.440;2023-07-20T11:09:14;19.30;99.90
7155;DHT22;3619;53.784;10.440;2023-07-20T11:11:43;19.40;99.90
7155;DHT22;3619;53.784;10.440;2023-07-20T11:14:11;19.40;99.90
7155;DHT22;3619;53.784;10.440;2023-07-20T11:16:51;19.00;99.90
7155;DHT22;3619;53.784;10.440;2023-07-20T11:19:21;18.30;99.90
7155;DHT22;3619;53.784;10.440;2023-07-20T11:21:51;17.20;99.90
7155;DHT22;3619;53.784;10.440;2023-07-20T11:24:20;16.30;99.90
7155;DHT22;3619;53.784;10.440;2023-07-20T11:26:48;15.30;99.90
7155;DHT22;3619;53.784;10.440;2023-07-20T11:29:17;14.80;99.90
7155;DHT22;3619;53.784;10.440;2023-07-20T11:31:46;14.60;99.90
7155;DHT22;3619;53.784;10.440;2023-07-20T11:34:16;14.60;99.90
7155;DHT22;3619;53.784;10.440;2023-07-20T11:36:45;15.00;99.90
7155;DHT22;3619;53.784;10.440;2023-07-20T11:39:14;15.30;99.90
7155;DHT22;3619;53.784;10.440;2023-07-20T11:41:47;15.70;99.90
7155;DHT22;3619;53.784;10.440;2023-07-20T11:44:18;15.90;99.90
7155;DHT22;3619;53.784;10.440;2023-07-20T11:46:46;15.80;99.90
7155;DHT22;3619;53.784;10.440;2023-07-20T11:49:14;15.70;99.90
7155;DHT22;3619;53.784;10.440;2023-07-20T11:51:44;15.50;99.90
7155;DHT22;3619;53.784;10.440;2023-07-20T11:54:11;15.60;99.90
7155;DHT22;3619;53.784;10.440;2023-07-20T11:56:41;15.70;99.90
7155;DHT22;3619;53.784;10.440;2023-07-20T11:59:11;15.80;99.90
7155;DHT22;3619;53.784;10.440;2023-07-20T12:01:41;16.00;99.90
7155;DHT22;3619;53.784;10.440;2023-07-20T12:04:08;16.00;99.90
7155;DHT22;3619;53.784;10.440;2023-07-20T12:06:34;16.10;99.90
7155;DHT22;3619;53.784;10.440;2023-07-20T12:09:01;16.10;99.90
7155;DHT22;3619;53.784;10.440;2023-07-20T12:11:33;16.10;99.90
7155;DHT22;3619;53.784;10.440;2023-07-20T12:14:00;16.10;99.90
7155;DHT22;3619;53.784;10.440;2023-07-20T12:16:29;16.20;99.90
7155;DHT22;3619;53.784;10.440;2023-07-20T12:19:02;16.60;99.90
7155;DHT22;3619;53.784;10.440;2023-07-20T12:21:33;17.10;99.90
7155;DHT22;3619;53.784;10.440;2023-07-20T12:24:03;17.40;99.90
7155;DHT22;3619;53.784;10.440;2023-07-20T12:26:30;17.80;99.90
7155;DHT22;3619;53.784;10.440;2023-07-20T12:28:58;18.10;99.90
7155;DHT22;3619;53.784;10.440;2023-07-20T12:31:25;18.40;99.90
7155;DHT22;3619;53.784;10.440;2023-07-20T12:33:54;18.60;99.90
7155;DHT22;3619;53.784;10.440;2023-07-20T12:36:22;18.80;99.90
7155;DHT22;3619;53.784;10.440;2023-07-20T12:38:48;18.70;99.90
7155;DHT22;3619;53.784;10.440;2023-07-20T12:41:15;18.40;99.90
7155;DHT22;3619;53.784;10.440;2023-07-20T12:43:43;18.20;99.90
7155;DHT22;3619;53.784;10.440;2023-07-20T12:46:12;18.30;99.90
7155;DHT22;3619;53.784;10.440;2023-07-20T12:48:40;18.60;99.90
7155;DHT22;3619;53.784;10.440;2023-07-20T12:51:09;18.90;99.90
7155;DHT22;3619;53.784;10.440;2023-07-20T12:53:37;18.80;99.90
7155;DHT22;3619;53.784;10.440;2023-07-20T12:56:05;18.30;99.90
7155;DHT22;3619;53.784;10.440;2023-07-20T12:58:33;18.00;99.90
7155;DHT22;3619;53.784;10.440;2023-07-20T13:01:00;17.70;99.90
7155;DHT22;3619;53.784;10.440;2023-07-20T13:03:27;17.50;99.90
7155;DHT22;3619;53.784;10.440;2023-07-20T13:05:54;17.40;99.90
7155;DHT22;3619;53.784;10.440;2023-07-20T13:08:36;17.30;99.90
7155;DHT22;3619;53.784;10.440;2023-07-20T13:11:06;17.30;99.90
7155;DHT22;3619;53.784;10.440;2023-07-20T13:13:33;17.30;99.90
7155;DHT22;3619;53.784;10.440;2023-07-20T13:16:00;17.50;99.90
7155;DHT22;3619;53.784;10.440;2023-07-20T13:18:26;17.60;99.90
7155;DHT22;3619;53.784;10.440;2023-07-20T13:20:54;18.00;99.90
7155;DHT22;3619;53.784;10.440;2023-07-20T13:23:21;18.50;99.90
7155;DHT22;3619;53.784;10.440;2023-07-20T13:25:49;18.80;99.90
7155;DHT22;3619;53.784;10.440;2023-07-20T13:28:16;19.00;99.90
7155;DHT22;3619;53.784;10.440;2023-07-20T13:30:43;18.90;99.90
7155;DHT22;3619;53.784;10.440;2023-07-20T13:33:11;18.10;99.90
7155;DHT22;3619;53.784;10.440;2023-07-20T13:35:38;17.20;99.90
7155;DHT22;3619;53.784;10.440;2023-07-20T13:38:05;16.80;99.90
7155;DHT22;3619;53.784;10.440;2023-07-20T13:40:32;16.70;99.90
7155;DHT22;3619;53.784;10.440;2023-07-20T13:43:00;16.50;99.90
7155;DHT22;3619;53.784;10.440;2023-07-20T13:45:27;16.30;99.90
7155;DHT22;3619;53.784;10.440;2023-07-20T13:47:53;16.50;99.90
7155;DHT22;3619;53.784;10.440;2023-07-20T13:50:20;16.70;99.90
7155;DHT22;3619;53.784;10.440;2023-07-20T13:52:47;16.60;99.90
7155;DHT22;3619;53.784;10.440;2023-07-20T13:55:14;16.80;99.90
7155;DHT22;3619;53.784;10.440;2023-07-20T13:57:41;17.10;99.90
7155;DHT22;3619;53.784;10.440;2023-07-20T14:00:10;17.10;99.90
7155;DHT22;3619;53.784;10.440;2023-07-20T14:02:39;17.10;99.90
7155;DHT22;3619;53.784;10.440;2023-07-20T14:05:06;17.20;99.90
7155;DHT22;3619;53.784;10.440;2023-07-20T14:07:33;17.50;99.90
7155;DHT22;3619;53.784;10.440;2023-07-20T14:10:00;17.50;99.90
7155;DHT22;3619;53.784;10.440;2023-07-20T14:12:27;17.30;99.90
7155;DHT22;3619;53.784;10.440;2023-07-20T14:14:54;17.30;99.90
7155;DHT22;3619;53.784;10.440;2023-07-20T14:17:22;17.40;99.90
7155;DHT22;3619;53.784;10.440;2023-07-20T14:19:49;17.40;99.90
7155;DHT22;3619;53.784;10.440;2023-07-20T14:22:17;17.50;99.90
7155;DHT22;3619;53.784;10.440;2023-07-20T14:24:44;17.80;99.90
7155;DHT22;3619;53.784;10.440;2023-07-20T14:27:11;18.10;99.90
7155;DHT22;3619;53.784;10.440;2023-07-20T14:29:37;18.70;99.90
7155;DHT22;3619;53.784;10.440;2023-07-20T14:32:05;18.70;99.90
7155;DHT22;3619;53.784;10.440;2023-07-20T14:34:34;18.80;99.90
7155;DHT22;3619;53.784;10.440;2023-07-20T14:37:02;18.90;99.90
7155;DHT22;3619;53.784;10.440;2023-07-20T14:39:30;18.80;99.90
7155;DHT22;3619;53.784;10.440;2023-07-20T14:41:57;18.90;99.90
7155;DHT22;3619;53.784;10.440;2023-07-20T14:44:24;19.00;99.90
7155;DHT22;3619;53.784;10.440;2023-07-20T14:46:51;18.80;99.90
7155;DHT22;3619;53.784;10.440;2023-07-20T14:49:18;18.60;99.90
7155;DHT22;3619;53.784;10.440;2023-07-20T14:51:46;18.30;99.90
7155;DHT22;3619;53.784;10.440;2023-07-20T14:54:13;18.20;99.90
7155;DHT22;3619;53.784;10.440;2023-07-20T14:56:46;18.10;99.90
7155;DHT22;3619;53.784;10.440;2023-07-20T14:59:15;18.10;99.90
7155;DHT22;3619;53.784;10.440;2023-07-20T15:01:43;18.60;99.90
7155;DHT22;3619;53.784;10.440;2023-07-20T15:04:11;18.80;99.90
7155;DHT22;3619;53.784;10.440;2023-07-20T15:06:38;18.70;99.90
7155;DHT22;3619;53.784;10.440;2023-07-20T15:09:06;18.60;99.90
7155;DHT22;3619;53.784;10.440;2023-07-20T15:11:33;18.60;99.90
7155;DHT22;3619;53.784;10.440;2023-07-20T15:14:00;18.50;99.90
7155;DHT22;3619;53.784;10.440;2023-07-20T15:16:27;18.40;99.90
7155;DHT22;3619;53.784;10.440;2023-07-20T15:18:54;18.40;99.90
7155;DHT22;3619;53.784;10.440;2023-07-20T15:21:21;18.30;99.90
7155;DHT22;3619;53.784;10.440;2023-07-20T15:23:49;18.30;99.90
7155;DHT22;3619;53.784;10.440;2023-07-20T15:26:17;18.40;99.90
7155;DHT22;3619;53.784;10.440;2023-07-20T15:28:44;18.80;99.90
7155;DHT22;3619;53.784;10.440;2023-07-20T15:31:10;19.20;99.90
7155;DHT22;3619;53.784;10.440;2023-07-20T15:33:38;19.20;99.90
7155;DHT22;3619;53.784;10.440;2023-07-20T15:36:07;19.20;99.90
7155;DHT22;3619;53.784;10.440;2023-07-20T15:38:34;19.20;99.90
7155;DHT22;3619;53.784;10.440;2023-07-20T15:41:02;19.40;99.90
7155;DHT22;3619;53.784;10.440;2023-07-20T15:43:33;19.20;99.90
7155;DHT22;3619;53.784;10.440;2023-07-20T15:46:02;19.30;99.90
7155;DHT22;3619;53.784;10.440;2023-07-20T15:48:34;19.40;99.90
7155;DHT22;3619;53.784;10.440;2023-07-20T15:51:01;19.60;99.90